Main page
METAR-TAF:

METAR-TAF

Airports :

Valladolid, Spain

Valladolid Airport

latitude: 41-43N, longitude: 004-51W, elevation: 849 m

Current weather observation

The report was made 3 hours and 24 minutes ago, at 20:30 UTC
Wind 5 kt from the East/Northeast
Temperature 6°C
Humidity 70%
Pressure 1023 hPa
Visibility 10 km or more
Few clouds at a height of 4000 ft

METAR: LEVD 182030Z 07005KT 9999 FEW040 06/01 Q1023

Time: 00:54 (23:54 UTC)

Forecast

The report was made 54 minutes ago, at 23:00 UTC
Forecast valid from 19 at 00 UTC to 19 at 24 UTC
Wind 6 kt from the East/Northeast
Visibility 10 km or more
Scattered clouds at a height of 4000 ft
Temporary
from 19 at 12 UTC to 19 at 18 UTC
Wind 12 kt from the North

TAF: LEVD 182300Z 1900/1924 06006KT 9999 SCT040 TX11/1915Z TN00/1906Z TEMPO 1912/1918 01012KT

Weather observations and forecasts of more than 4000 airports (METAR and TAF reports).

The available stations are represented by yellow and red dots on the map.

Hover mouse over dot to see the name of the station.

Then click to see weather observations and forecasts.

To change the map : click on the green buttons with a black cross to zoom in, on the green button with a dash to zoom out, or on the green arrows for adjacent maps.


METAR-TAF: